Time;durP1;ratioP1;P1;durP2;ratioP2;P2;SDS_P1;SDS_P2;PMS_P1;PMS_P2;Temp;Humidity;BMP_temperature;BMP_pressure;BME280_temperature;BME280_humidity;BME280_pressure;Samples;Min_cycle;Max_cycle;Signal;HPM_P1;HPM_P2
2022/11/30 00:02:23;;;;;;;20.02;13.20;;;7.50;99.90;;;;;;5019253;28;20060;-45
2022/11/30 00:04:49;;;;;;;16.40;11.68;;;7.50;99.90;;;;;;5053866;28;20025;-49
2022/11/30 00:07:15;;;;;;;17.48;11.10;;;7.50;99.90;;;;;;5053809;28;20056;-50
2022/11/30 00:09:41;;;;;;;15.93;10.65;;;7.50;99.90;;;;;;5018750;28;20071;-51
2022/11/30 00:12:06;;;;;;;18.70;12.05;;;7.50;99.90;;;;;;5018741;28;20051;-47
2022/11/30 00:14:32;;;;;;;36.60;19.58;;;7.30;99.90;;;;;;5053477;28;20123;-48
2022/11/30 00:16:58;;;;;;;49.45;28.13;;;7.30;99.90;;;;;;5052547;28;20029;-49
2022/11/30 00:19:24;;;;;;;49.28;26.98;;;7.40;99.90;;;;;;5018680;28;20076;-47
2022/11/30 00:21:49;;;;;;;48.30;26.08;;;7.30;99.90;;;;;;5002176;28;20072;-47
2022/11/30 00:24:15;;;;;;;39.03;22.15;;;7.40;99.90;;;;;;5019266;28;20065;-48
2022/11/30 00:26:41;;;;;;;30.85;17.85;;;7.40;99.90;;;;;;5053954;28;20028;-47
2022/11/30 00:29:06;;;;;;;27.60;16.95;;;7.40;99.90;;;;;;5054046;28;20025;-51
2022/11/30 00:31:32;;;;;;;24.17;15.02;;;7.40;99.90;;;;;;5054081;28;20112;-47
2022/11/30 00:33:58;;;;;;;22.58;13.02;;;7.40;99.90;;;;;;5035183;28;20037;-47
2022/11/30 00:36:24;;;;;;;17.75;11.77;;;7.50;99.90;;;;;;5053829;28;20021;-48
2022/11/30 00:38:50;;;;;;;18.05;12.70;;;7.60;99.90;;;;;;5018282;28;20476;-47
2022/11/30 00:41:17;;;;;;;17.08;11.98;;;7.60;99.90;;;;;;5053232;28;20029;-48
2022/11/30 00:43:44;;;;;;;15.73;11.48;;;7.60;99.90;;;;;;5053076;28;20075;-46
2022/11/30 00:46:09;;;;;;;14.95;10.27;;;7.60;99.90;;;;;;4978273;28;20045;-47
2022/11/30 00:48:36;;;;;;;17.67;12.05;;;7.60;99.90;;;;;;5010885;28;20042;-49
2022/11/30 00:51:03;;;;;;;17.27;12.23;;;7.80;99.90;;;;;;5011271;28;20161;-49
2022/11/30 00:53:29;;;;;;;16.85;11.80;;;7.70;99.90;;;;;;5011161;28;20030;-51
2022/11/30 00:55:54;;;;;;;19.35;12.70;;;7.60;99.90;;;;;;4978565;28;20053;-47
2022/11/30 00:58:20;;;;;;;18.58;12.95;;;7.60;99.90;;;;;;5011220;28;20029;-47
2022/11/30 01:00:46;;;;;;;18.23;12.57;;;7.60;99.90;;;;;;4946115;28;20080;-47
2022/11/30 01:03:12;;;;;;;19.73;13.25;;;7.60;99.90;;;;;;4978577;28;20197;-51
2022/11/30 01:05:40;;;;;;;18.75;12.77;;;7.60;99.90;;;;;;4978362;28;20061;-46
2022/11/30 01:08:07;;;;;;;20.10;12.48;;;7.10;99.90;;;;;;5011039;28;20026;-48
2022/11/30 01:10:35;;;;;;;19.45;13.65;;;6.90;99.90;;;;;;5010972;28;20030;-47
2022/11/30 01:13:02;;;;;;;16.77;12.18;;;7.10;99.90;;;;;;5011037;28;20113;-50
2022/11/30 01:15:27;;;;;;;15.30;10.95;;;7.30;99.90;;;;;;5011019;28;20033;-47
2022/11/30 01:17:53;;;;;;;17.98;12.85;;;7.40;99.90;;;;;;5044699;28;20037;-48
2022/11/30 01:20:19;;;;;;;17.73;11.52;;;7.40;99.90;;;;;;5034126;28;20119;-48
2022/11/30 01:22:44;;;;;;;15.68;11.00;;;7.50;99.90;;;;;;5052659;28;20036;-50
2022/11/30 01:25:10;;;;;;;14.60;10.60;;;7.50;99.90;;;;;;5052915;28;20495;-50
2022/11/30 01:27:36;;;;;;;14.15;10.52;;;7.60;99.90;;;;;;5017551;28;20535;-48
2022/11/30 01:30:02;;;;;;;15.77;11.32;;;7.70;99.90;;;;;;5056466;28;20541;-49
2022/11/30 01:32:28;;;;;;;17.10;11.77;;;7.70;99.90;;;;;;5056556;28;20120;-47
2022/11/30 01:34:54;;;;;;;16.63;11.50;;;7.60;99.90;;;;;;5056712;28;20159;-50
2022/11/30 01:37:19;;;;;;;13.52;10.15;;;7.80;99.90;;;;;;5038087;28;20040;-49
2022/11/30 01:39:45;;;;;;;16.77;11.05;;;7.80;99.90;;;;;;5021373;28;20075;-50
2022/11/30 01:42:16;;;;;;;16.40;10.63;;;7.80;99.90;;;;;;5021437;28;20084;-47
2022/11/30 01:44:51;;;;;;;15.77;10.57;;;7.80;99.90;;;;;;5021165;28;20397;-47
2022/11/30 01:47:23;;;;;;;14.93;10.38;;;7.70;99.90;;;;;;5056302;28;20033;-47
2022/11/30 01:50:00;;;;;;;15.90;10.38;;;7.80;99.90;;;;;;5056139;28;20172;-47
2022/11/30 01:52:43;;;;;;;15.77;10.85;;;7.70;99.90;;;;;;5056249;28;20029;-46
2022/11/30 01:55:41;;;;;;;15.02;10.48;;;7.60;99.90;;;;;;5056437;28;20037;-47
2022/11/30 01:58:11;;;;;;;14.20;9.68;;;7.60;99.90;;;;;;5053011;28;20041;-51
2022/11/30 02:00:38;;;;;;;13.85;9.00;;;7.50;99.90;;;;;;5056171;28;20033;-49
2022/11/30 02:03:25;;;;;;;17.38;9.60;;;7.60;99.90;;;;;;5055724;28;20051;-49
2022/11/30 02:05:51;;;;;;;14.50;9.88;;;7.60;99.90;;;;;;5055899;28;20029;-45
2022/11/30 02:08:18;;;;;;;13.55;9.10;;;7.50;99.90;;;;;;5056319;28;20017;-53
2022/11/30 02:10:50;;;;;;;15.20;9.65;;;7.40;99.90;;;;;;5055900;28;20029;-46
2022/11/30 02:13:27;;;;;;;14.88;10.07;;;7.40;99.90;;;;;;5056350;28;20025;-59
2022/11/30 02:16:05;;;;;;;52.72;28.73;;;7.40;99.90;;;;;;5056275;28;20025;-53
2022/11/30 02:18:35;;;;;;;45.45;25.90;;;7.30;99.90;;;;;;5056574;28;20029;-50
2022/11/30 02:21:17;;;;;;;31.63;22.55;;;7.40;99.90;;;;;;5055770;28;20043;-57
2022/11/30 02:23:48;;;;;;;18.35;13.43;;;7.40;99.90;;;;;;5056305;28;20033;-49
2022/11/30 02:26:33;;;;;;;13.83;10.50;;;7.40;99.90;;;;;;5055947;28;20112;-50
2022/11/30 02:29:17;;;;;;;13.50;9.02;;;7.50;99.90;;;;;;5055428;28;20277;-49
2022/11/30 02:32:15;;;;;;;12.52;7.97;;;7.50;99.90;;;;;;5020369;28;20037;-47
2022/11/30 02:34:45;;;;;;;17.38;12.90;;;7.30;99.90;;;;;;4955193;29;20574;-47
2022/11/30 02:37:14;;;;;;;24.40;17.17;;;7.20;99.90;;;;;;4955085;29;20050;-47
2022/11/30 02:39:41;;;;;;;17.45;13.68;;;7.30;99.90;;;;;;4954319;28;20058;-49
2022/11/30 02:42:14;;;;;;;12.60;9.95;;;7.40;99.90;;;;;;4954912;29;20031;-50
2022/11/30 02:44:46;;;;;;;13.05;10.95;;;7.50;99.90;;;;;;4955061;29;20070;-50
2022/11/30 02:47:33;;;;;;;15.13;10.80;;;7.70;99.90;;;;;;4955002;29;20469;-49
2022/11/30 02:50:14;;;;;;;18.23;13.60;;;7.70;99.90;;;;;;4954905;29;20043;-47
2022/11/30 02:52:40;;;;;;;25.40;16.42;;;7.80;99.90;;;;;;4954921;29;20057;-48
2022/11/30 02:55:09;;;;;;;32.83;19.27;;;7.80;99.90;;;;;;4954787;29;20129;-47
2022/11/30 02:57:35;;;;;;;56.90;26.23;;;7.90;99.90;;;;;;4955045;29;20042;-48
2022/11/30 03:00:06;;;;;;;39.60;18.75;;;7.90;99.90;;;;;;4954661;29;20134;-50
2022/11/30 03:02:32;;;;;;;35.75;18.70;;;7.90;99.90;;;;;;4954796;29;20093;-49
2022/11/30 03:04:57;;;;;;;22.70;13.68;;;8.00;99.90;;;;;;4954697;29;20039;-46
2022/11/30 03:07:24;;;;;;;74.35;38.17;;;8.00;99.90;;;;;;4938693;29;20411;-49
2022/11/30 03:09:49;;;;;;;23.02;14.10;;;8.10;99.90;;;;;;4987148;28;20036;-49
2022/11/30 03:12:15;;;;;;;15.68;10.18;;;8.00;99.90;;;;;;5003582;28;20397;-47
2022/11/30 03:14:41;;;;;;;16.02;11.13;;;8.00;99.90;;;;;;5054619;28;20021;-50
2022/11/30 03:17:07;;;;;;;11.15;8.73;;;8.10;99.90;;;;;;5019629;28;20041;-50
2022/11/30 03:19:33;;;;;;;14.63;11.35;;;8.10;99.90;;;;;;5054579;28;20047;-45
2022/11/30 03:21:59;;;;;;;15.27;11.38;;;8.10;99.90;;;;;;5054488;28;20033;-49
2022/11/30 03:24:25;;;;;;;13.52;9.70;;;8.10;99.90;;;;;;5003205;28;20048;-48
2022/11/30 03:26:51;;;;;;;14.25;11.93;;;8.00;99.90;;;;;;5054415;28;20029;-46
2022/11/30 03:29:16;;;;;;;14.60;11.57;;;8.10;99.90;;;;;;5003064;28;20033;-47
2022/11/30 03:31:42;;;;;;;27.02;24.17;;;8.20;99.90;;;;;;5019315;28;20051;-48
2022/11/30 03:34:08;;;;;;;18.05;15.30;;;8.20;99.90;;;;;;5055024;28;20079;-57
2022/11/30 03:36:34;;;;;;;16.17;10.98;;;8.20;99.90;;;;;;4987084;28;20036;-51
2022/11/30 03:39:00;;;;;;;21.40;18.63;;;8.20;99.90;;;;;;5003167;28;20115;-50
2022/11/30 03:41:25;;;;;;;22.23;15.63;;;8.20;99.90;;;;;;5053967;28;20051;-48
2022/11/30 03:43:52;;;;;;;34.22;26.35;;;8.30;99.90;;;;;;5019080;28;20504;-50
2022/11/30 03:46:18;;;;;;;25.40;17.88;;;8.20;99.90;;;;;;5054119;28;20409;-50
2022/11/30 03:48:43;;;;;;;44.08;28.90;;;8.40;99.90;;;;;;5054114;28;20055;-46
2022/11/30 03:51:11;;;;;;;28.70;20.02;;;8.30;99.90;;;;;;4986228;28;20124;-49
2022/11/30 03:53:38;;;;;;;27.55;23.02;;;8.40;99.90;;;;;;5054138;28;20029;-51
2022/11/30 03:56:06;;;;;;;28.50;22.38;;;8.40;99.90;;;;;;5053887;28;20389;-48
2022/11/30 03:58:32;;;;;;;27.15;19.63;;;8.40;99.90;;;;;;4975982;28;20085;-51
2022/11/30 04:01:07;;;;;;;30.08;21.27;;;8.40;99.90;;;;;;4975862;28;20124;-48
2022/11/30 04:03:34;;;;;;;35.20;24.88;;;8.40;99.90;;;;;;4959920;28;20053;-48
2022/11/30 04:06:00;;;;;;;38.00;25.58;;;8.40;99.90;;;;;;4959975;28;20517;-49
2022/11/30 04:08:26;;;;;;;33.05;23.13;;;8.40;99.90;;;;;;4992282;28;20509;-50
2022/11/30 04:10:53;;;;;;;27.67;20.90;;;8.50;99.90;;;;;;4992291;28;20026;-47
2022/11/30 04:13:20;;;;;;;26.38;19.17;;;8.60;99.90;;;;;;4991997;28;20370;-47
2022/11/30 04:15:47;;;;;;;30.67;22.42;;;8.60;99.90;;;;;;4992210;28;20461;-49
2022/11/30 04:18:14;;;;;;;41.00;29.13;;;8.50;99.90;;;;;;4992147;28;20077;-46
2022/11/30 04:20:41;;;;;;;40.30;28.05;;;8.50;99.90;;;;;;4991959;28;20045;-46
2022/11/30 04:23:08;;;;;;;41.08;23.95;;;8.60;99.90;;;;;;4992054;28;20552;-48
2022/11/30 04:25:36;;;;;;;50.47;30.70;;;8.50;99.90;;;;;;4992044;28;20030;-49
2022/11/30 04:28:01;;;;;;;49.03;37.50;;;8.30;99.90;;;;;;4992005;28;20031;-49
2022/11/30 04:30:27;;;;;;;111.68;49.92;;;8.40;99.90;;;;;;4935669;28;20091;-47
2022/11/30 04:32:53;;;;;;;41.78;27.27;;;8.50;99.90;;;;;;5002126;28;20041;-47
2022/11/30 04:35:18;;;;;;;62.35;43.60;;;8.40;99.90;;;;;;5053184;28;20029;-46
2022/11/30 04:37:44;;;;;;;36.40;21.92;;;8.50;99.90;;;;;;5053158;28;20021;-47
2022/11/30 04:40:11;;;;;;;24.83;19.88;;;8.40;99.90;;;;;;5053329;28;20029;-47
2022/11/30 04:42:36;;;;;;;23.58;17.23;;;8.50;99.90;;;;;;5002081;28;20045;-47
2022/11/30 04:45:02;;;;;;;28.98;20.08;;;8.50;99.90;;;;;;5053354;28;20503;-51
2022/11/30 04:47:28;;;;;;;30.75;24.17;;;8.50;99.90;;;;;;5001597;28;20064;-48
2022/11/30 04:49:54;;;;;;;44.35;29.45;;;8.70;99.90;;;;;;5052969;28;20028;-47
2022/11/30 04:52:19;;;;;;;41.08;26.80;;;8.60;99.90;;;;;;4969534;28;20130;-48
2022/11/30 04:54:45;;;;;;;68.90;38.38;;;8.50;99.90;;;;;;5017947;28;20040;-50
2022/11/30 04:57:11;;;;;;;57.03;38.90;;;8.60;99.90;;;;;;5001739;28;20041;-50
2022/11/30 04:59:36;;;;;;;64.82;41.72;;;8.60;99.90;;;;;;5052679;28;20124;-50
2022/11/30 05:02:02;;;;;;;57.15;36.22;;;8.60;99.90;;;;;;5001751;28;20036;-48
2022/11/30 05:04:28;;;;;;;44.35;29.98;;;8.60;99.90;;;;;;5052244;28;20029;-46
2022/11/30 05:06:54;;;;;;;43.97;26.00;;;8.60;99.90;;;;;;5052917;28;20068;-50
2022/11/30 05:09:19;;;;;;;42.25;31.58;;;8.60;99.90;;;;;;5052850;28;20025;-51
2022/11/30 05:11:47;;;;;;;37.47;28.48;;;8.70;99.90;;;;;;5017659;28;20112;-49
2022/11/30 05:14:13;;;;;;;34.50;22.98;;;8.70;99.90;;;;;;5001328;28;20060;-47
2022/11/30 05:16:39;;;;;;;27.13;18.20;;;8.80;99.90;;;;;;5010934;28;20068;-48
2022/11/30 05:19:04;;;;;;;25.17;18.70;;;8.80;99.90;;;;;;5052132;28;20029;-50
2022/11/30 05:21:30;;;;;;;28.75;23.80;;;8.80;99.90;;;;;;5042041;28;20029;-48
2022/11/30 05:23:56;;;;;;;29.75;24.00;;;8.70;99.90;;;;;;5032669;28;20080;-49
2022/11/30 05:26:22;;;;;;;26.88;23.25;;;8.70;99.90;;;;;;4995022;28;20072;-46
2022/11/30 05:28:48;;;;;;;21.45;16.92;;;8.70;99.90;;;;;;4991044;28;20076;-47
2022/11/30 05:31:13;;;;;;;24.88;16.50;;;8.70;99.90;;;;;;4992249;28;20459;-47
2022/11/30 05:33:39;;;;;;;49.42;34.75;;;8.70;99.90;;;;;;5000227;28;20052;-51
2022/11/30 05:36:05;;;;;;;22.00;16.48;;;8.80;99.90;;;;;;5010891;28;20029;-51
2022/11/30 05:38:31;;;;;;;22.92;15.50;;;8.80;99.90;;;;;;4978177;28;20478;-51
2022/11/30 05:41:00;;;;;;;18.83;14.23;;;;;;;;;;5004089;28;20045;-46
2022/11/30 05:43:26;;;;;;;18.80;12.13;;;8.80;99.90;;;;;;5002487;28;20076;-48
2022/11/30 05:45:57;;;;;;;16.63;11.82;;;8.60;99.90;;;;;;5010669;28;20129;-50
2022/11/30 05:48:23;;;;;;;19.50;14.70;;;8.40;99.90;;;;;;4978047;28;20058;-45
2022/11/30 05:50:49;;;;;;;22.35;13.85;;;8.20;99.90;;;;;;4994167;28;20406;-50
2022/11/30 05:53:14;;;;;;;16.25;11.10;;;8.20;99.90;;;;;;5010743;28;20378;-48
2022/11/30 05:55:40;;;;;;;19.35;11.38;;;8.00;99.90;;;;;;5005487;28;20229;-49
2022/11/30 05:58:06;;;;;;;18.40;9.93;;;7.80;99.90;;;;;;4989767;28;20034;-45
2022/11/30 06:00:32;;;;;;;17.65;12.45;;;8.00;99.90;;;;;;5001113;28;20075;-47
2022/11/30 06:02:58;;;;;;;17.25;10.05;;;7.80;99.90;;;;;;5042624;28;20037;-51
2022/11/30 06:05:27;;;;;;;16.23;9.75;;;7.90;99.90;;;;;;5041581;28;20036;-54
2022/11/30 06:07:54;;;;;;;19.15;10.23;;;7.80;99.90;;;;;;5021205;28;20484;-53
2022/11/30 06:10:20;;;;;;;14.13;9.38;;;7.70;99.90;;;;;;5038222;28;20416;-52
2022/11/30 06:12:47;;;;;;;16.08;10.13;;;7.70;99.90;;;;;;4988022;28;20112;-52
2022/11/30 06:15:13;;;;;;;15.23;10.18;;;7.60;99.90;;;;;;4997647;28;20041;-52
2022/11/30 06:17:39;;;;;;;14.27;9.60;;;;;;;;;;5049880;28;20040;-52
2022/11/30 06:20:05;;;;;;;14.85;10.50;;;;;;;;;;5020612;28;20499;-50
2022/11/30 06:22:32;;;;;;;15.43;11.02;;;;;;;;;;4972234;28;20041;-51
2022/11/30 06:24:58;;;;;;;15.35;10.27;;;;;;;;;;4988046;28;20404;-49
2022/11/30 06:27:24;;;;;;;14.70;10.18;;;;;;;;;;5048768;28;20025;-51
2022/11/30 06:29:50;;;;;;;16.75;11.57;;;;;;;;;;4992960;28;20030;-50
2022/11/30 06:32:16;;;;;;;15.18;11.27;;;;;;;;;;5044791;28;20054;-49
2022/11/30 06:34:42;;;;;;;16.33;10.75;;;;;;;;;;5045656;28;20029;-52
2022/11/30 06:37:08;;;;;;;17.35;11.60;;;7.90;99.90;;;;;;5055748;28;20021;-46
2022/11/30 06:39:33;;;;;;;18.33;11.15;;;8.00;99.90;;;;;;5013900;28;20452;-45
2022/11/30 06:41:59;;;;;;;15.45;10.68;;;7.90;99.90;;;;;;5002496;28;20087;-45
2022/11/30 06:44:26;;;;;;;14.05;9.70;;;8.00;99.90;;;;;;5000728;28;20029;-47
2022/11/30 06:46:52;;;;;;;18.77;10.88;;;8.00;99.90;;;;;;5035243;28;20053;-48
2022/11/30 06:49:18;;;;;;;15.10;9.27;;;7.90;99.90;;;;;;4935807;28;20476;-45
2022/11/30 06:51:43;;;;;;;14.50;11.15;;;7.90;99.90;;;;;;5000722;28;20389;-48
2022/11/30 06:54:09;;;;;;;14.55;10.10;;;7.40;99.90;;;;;;5035102;28;20029;-46
2022/11/30 06:56:35;;;;;;;13.65;8.55;;;7.80;99.90;;;;;;5000612;28;20037;-44
2022/11/30 06:59:00;;;;;;;6.57;4.78;;;8.00;99.90;;;;;;5000610;28;20038;-46
2022/11/30 07:01:26;;;;;;;5.03;3.85;;;7.90;99.90;;;;;;5035641;28;20037;-45
2022/11/30 07:03:52;;;;;;;5.38;3.08;;;7.70;99.90;;;;;;5035841;28;20103;-45
2022/11/30 07:06:17;;;;;;;5.53;3.58;;;7.80;99.90;;;;;;5035274;28;20026;-45
2022/11/30 07:08:43;;;;;;;10.15;5.45;;;7.70;99.90;;;;;;5000509;28;20087;-47
2022/11/30 07:11:11;;;;;;;7.57;4.15;;;7.60;99.90;;;;;;5035178;28;20354;-44
2022/11/30 07:13:37;;;;;;;4.10;3.00;;;7.60;99.90;;;;;;5005924;28;20134;-48
2022/11/30 07:16:07;;;;;;;4.88;2.80;;;7.70;99.90;;;;;;5053893;28;20024;-48
2022/11/30 07:18:33;;;;;;;8.18;4.68;;;7.70;99.90;;;;;;5054708;28;20029;-47
2022/11/30 07:21:01;;;;;;;8.88;4.93;;;7.80;99.90;;;;;;5054365;28;20047;-48
2022/11/30 07:26:11;;;;;;;4.50;3.10;;;7.70;99.90;;;;;;5044018;28;20091;-47
2022/11/30 07:28:45;;;;;;;6.00;3.40;;;7.60;99.90;;;;;;5047663;28;20026;-48
2022/11/30 07:31:21;;;;;;;4.72;3.40;;;7.50;99.90;;;;;;5040573;28;20040;-50
2022/11/30 07:33:48;;;;;;;7.25;4.53;;;7.70;99.90;;;;;;5035970;28;20040;-49
2022/11/30 07:36:16;;;;;;;5.57;3.42;;;7.80;99.90;;;;;;5000591;28;20107;-53
2022/11/30 07:38:42;;;;;;;6.95;3.70;;;7.80;99.90;;;;;;5034721;28;20029;-51
2022/11/30 07:41:08;;;;;;;6.93;3.95;;;7.90;99.90;;;;;;5007862;28;20037;-48
2022/11/30 07:43:34;;;;;;;8.90;4.40;;;7.80;99.90;;;;;;5054050;28;20056;-47
2022/11/30 07:46:01;;;;;;;9.63;5.15;;;7.70;99.90;;;;;;5048047;28;20040;-48
2022/11/30 07:48:27;;;;;;;4.63;2.88;;;7.90;99.90;;;;;;5053925;28;20456;-51
2022/11/30 07:50:53;;;;;;;8.98;5.15;;;7.80;99.90;;;;;;5002679;28;20033;-47
2022/11/30 07:53:18;;;;;;;4.68;3.45;;;7.80;99.90;;;;;;5053938;28;20083;-48
2022/11/30 07:55:44;;;;;;;3.85;2.40;;;7.80;99.90;;;;;;5053838;28;20480;-44
2022/11/30 07:58:10;;;;;;;5.78;2.60;;;7.80;99.90;;;;;;5018819;28;20040;-43
2022/11/30 08:00:37;;;;;;;3.20;2.35;;;7.60;99.90;;;;;;5053569;28;20112;-43
2022/11/30 08:03:03;;;;;;;5.10;2.33;;;7.70;99.90;;;;;;5048881;28;20029;-42
2022/11/30 08:05:29;;;;;;;3.47;2.30;;;7.70;99.90;;;;;;5039559;28;20029;-48
2022/11/30 08:07:55;;;;;;;3.15;1.92;;;7.80;99.90;;;;;;5036103;28;20131;-50
2022/11/30 08:10:23;;;;;;;3.03;1.90;;;7.70;99.90;;;;;;5050221;28;20108;-45
2022/11/30 08:12:48;;;;;;;3.08;1.80;;;7.80;99.90;;;;;;5053606;28;20025;-45
2022/11/30 08:15:15;;;;;;;3.42;1.98;;;7.70;99.90;;;;;;5001994;28;20080;-46
2022/11/30 08:17:41;;;;;;;9.13;5.03;;;7.80;99.90;;;;;;5053682;28;20028;-47
2022/11/30 08:20:10;;;;;;;10.75;6.13;;;7.90;99.90;;;;;;5016230;28;20413;-46
2022/11/30 08:22:36;;;;;;;5.03;3.20;;;8.00;99.90;;;;;;5008851;28;20154;-47
2022/11/30 08:25:03;;;;;;;4.53;2.85;;;8.10;99.90;;;;;;5053011;28;20384;-47
2022/11/30 08:27:28;;;;;;;3.22;1.83;;;8.00;99.90;;;;;;5036968;28;20112;-48
2022/11/30 08:29:54;;;;;;;6.55;4.05;;;8.00;99.90;;;;;;4949481;28;20121;-47
2022/11/30 08:32:20;;;;;;;7.32;4.32;;;8.10;99.90;;;;;;5038880;28;20082;-49
2022/11/30 08:34:46;;;;;;;11.10;5.90;;;8.20;99.90;;;;;;5035387;28;20033;-46
2022/11/30 08:37:11;;;;;;;6.88;3.90;;;8.30;99.90;;;;;;5048587;28;20029;-47
2022/11/30 08:39:37;;;;;;;7.00;4.05;;;8.30;99.90;;;;;;4995383;28;20041;-47
2022/11/30 08:42:03;;;;;;;6.47;4.40;;;8.20;99.90;;;;;;5012396;28;20025;-46
2022/11/30 08:44:29;;;;;;;4.90;2.80;;;8.20;99.90;;;;;;5049797;28;20526;-47
2022/11/30 08:46:55;;;;;;;6.03;3.40;;;8.30;99.90;;;;;;5050852;28;20385;-47
2022/11/30 08:49:22;;;;;;;2.33;1.40;;;8.50;99.90;;;;;;5048884;28;20485;-46
2022/11/30 08:51:48;;;;;;;3.47;2.05;;;8.60;99.90;;;;;;5047443;28;20076;-46
2022/11/30 08:54:14;;;;;;;2.88;2.10;;;8.40;99.90;;;;;;5034263;28;20032;-46
2022/11/30 08:56:40;;;;;;;7.43;3.40;;;8.50;99.90;;;;;;5047808;28;20037;-51
2022/11/30 08:59:06;;;;;;;2.88;1.77;;;8.40;99.90;;;;;;5047400;28;20128;-52
2022/11/30 09:01:31;;;;;;;2.42;1.67;;;8.40;99.90;;;;;;5039830;28;20029;-46
2022/11/30 09:03:57;;;;;;;3.30;2.15;;;8.50;99.90;;;;;;5018297;28;20366;-48
2022/11/30 09:06:27;;;;;;;2.47;1.55;;;8.50;99.90;;;;;;5034233;28;20404;-50
2022/11/30 09:08:54;;;;;;;2.85;1.52;;;8.60;99.90;;;;;;5029964;28;20033;-49
2022/11/30 09:11:24;;;;;;;2.53;1.40;;;8.80;99.90;;;;;;5036821;28;20393;-50
2022/11/30 09:13:52;;;;;;;2.50;1.45;;;8.70;99.90;;;;;;5007021;28;20033;-49
2022/11/30 09:16:19;;;;;;;3.15;2.60;;;8.70;99.90;;;;;;5028466;28;20041;-48
2022/11/30 09:18:47;;;;;;;4.28;3.17;;;8.70;99.90;;;;;;5041746;28;20033;-50
2022/11/30 09:21:15;;;;;;;5.30;3.65;;;8.80;99.90;;;;;;5032438;28;20034;-51
2022/11/30 09:23:41;;;;;;;4.97;3.25;;;9.20;99.90;;;;;;5031358;28;20496;-47
2022/11/30 09:26:10;;;;;;;2.50;1.42;;;9.20;99.90;;;;;;4996737;28;20366;-52
2022/11/30 09:28:36;;;;;;;2.50;1.55;;;9.00;99.90;;;;;;5042082;28;20025;-53
2022/11/30 09:31:09;;;;;;;3.38;1.85;;;8.80;99.90;;;;;;5037665;28;20030;-48
2022/11/30 09:33:35;;;;;;;3.45;1.92;;;9.00;99.90;;;;;;5040761;28;20053;-51
2022/11/30 09:36:07;;;;;;;4.18;3.03;;;9.10;99.90;;;;;;4996664;28;20510;-51
2022/11/30 09:38:33;;;;;;;4.07;2.40;;;9.50;99.90;;;;;;4991360;28;20029;-47
2022/11/30 09:41:06;;;;;;;3.70;1.90;;;9.60;99.90;;;;;;5051486;28;20447;-55
2022/11/30 09:44:05;;;;;;;6.78;2.47;;;9.80;99.90;;;;;;5051778;28;20109;-50
2022/11/30 09:46:38;;;;;;;2.35;1.58;;;9.60;99.90;;;;;;5017379;28;20093;-54
2022/11/30 09:49:13;;;;;;;2.05;1.52;;;9.50;99.90;;;;;;5048270;28;20051;-60
2022/11/30 09:51:47;;;;;;;2.55;1.83;;;9.60;99.90;;;;;;5037951;28;20066;-48
2022/11/30 09:54:19;;;;;;;2.90;1.92;;;9.60;99.90;;;;;;5057296;28;20032;-54
2022/11/30 09:56:46;;;;;;;2.63;1.75;;;9.40;99.90;;;;;;5056346;28;20136;-51
2022/11/30 09:59:28;;;;;;;4.80;1.80;;;9.20;99.90;;;;;;5055130;28;20036;-52
2022/11/30 10:01:56;;;;;;;3.97;2.20;;;9.30;99.90;;;;;;5055297;28;20061;-52
2022/11/30 10:04:25;;;;;;;4.80;2.50;;;9.20;99.90;;;;;;5054935;28;20349;-49
2022/11/30 10:07:17;;;;;;;2.70;1.88;;;9.40;99.90;;;;;;5012571;28;20034;-50
2022/11/30 10:09:46;;;;;;;3.25;2.38;;;9.20;99.90;;;;;;4973462;28;20047;-59
2022/11/30 10:12:19;;;;;;;3.70;2.30;;;9.40;99.90;;;;;;4970451;28;20050;-52
2022/11/30 10:15:05;;;;;;;2.88;2.33;;;9.50;99.90;;;;;;4969842;28;20035;-49
2022/11/30 10:17:40;;;;;;;3.35;2.05;;;9.60;99.90;;;;;;4940780;28;20042;-50
2022/11/30 10:20:15;;;;;;;3.13;2.25;;;;;;;;;;4973687;28;20113;-50
2022/11/30 10:22:59;;;;;;;3.95;2.85;;;9.80;99.90;;;;;;4973787;28;20043;-50
2022/11/30 10:25:53;;;;;;;3.13;1.88;;;9.50;99.90;;;;;;4973824;28;20030;-51
2022/11/30 10:28:39;;;;;;;4.38;2.70;;;9.50;99.90;;;;;;4973523;28;20433;-51
2022/11/30 10:31:11;;;;;;;3.47;2.20;;;9.60;99.90;;;;;;4957027;28;20057;-51
2022/11/30 10:33:49;;;;;;;4.55;2.58;;;9.50;99.90;;;;;;4973318;28;20443;-50
2022/11/30 10:36:53;;;;;;;3.58;2.53;;;9.40;99.90;;;;;;4941308;28;20030;-50
2022/11/30 10:39:36;;;;;;;4.53;2.95;;;9.60;99.90;;;;;;4954061;29;20054;-50
2022/11/30 10:42:08;;;;;;;;;;;9.60;99.90;;;;;;4954184;29;20043;-50
2022/11/30 10:44:39;;;;;;;4.15;2.50;;;9.60;99.90;;;;;;4918801;29;19906;-50
2022/11/30 10:47:14;;;;;;;4.13;2.90;;;9.40;99.90;;;;;;4925484;28;20442;-50
2022/11/30 10:49:47;;;;;;;3.00;1.90;;;9.50;99.90;;;;;;4973026;28;20050;-50
2022/11/30 10:52:17;;;;;;;6.30;4.00;;;9.60;99.90;;;;;;4973382;28;20038;-50
2022/11/30 10:54:43;;;;;;;4.30;2.35;;;9.70;99.90;;;;;;4973008;28;20045;-50
2022/11/30 10:57:09;;;;;;;2.97;1.92;;;9.50;99.90;;;;;;4972964;28;20058;-50
2022/11/30 10:59:46;;;;;;;5.10;2.75;;;9.60;99.90;;;;;;4974048;28;20035;-50
2022/11/30 11:02:44;;;;;;;3.95;2.42;;;9.80;99.90;;;;;;4973436;28;20117;-50
2022/11/30 11:05:15;;;;;;;4.35;2.30;;;9.90;99.90;;;;;;4974161;28;20033;-50
2022/11/30 11:07:49;;;;;;;3.47;2.45;;;9.90;99.90;;;;;;4925997;28;20042;-50
2022/11/30 11:10:26;;;;;;;7.43;3.72;;;9.80;99.90;;;;;;4971417;28;20537;-50
2022/11/30 11:12:53;;;;;;;11.43;5.65;;;9.90;99.90;;;;;;4973967;28;20031;-50
2022/11/30 11:15:25;;;;;;;4.72;2.50;;;10.10;99.90;;;;;;5021746;28;20121;-50
2022/11/30 11:17:52;;;;;;;4.07;2.87;;;10.00;99.90;;;;;;5044385;28;20436;-50
2022/11/30 11:20:41;;;;;;;3.17;2.50;;;10.40;99.90;;;;;;5019694;28;20400;-50
2022/11/30 11:23:20;;;;;;;2.80;2.05;;;;;;;;;;5054641;28;20550;-50
2022/11/30 11:25:52;;;;;;;4.00;2.50;;;11.30;99.90;;;;;;5054941;28;20559;-50
2022/11/30 11:28:20;;;;;;;3.25;1.70;;;;;;;;;;5051882;28;20044;-50
2022/11/30 11:30:46;;;;;;;2.13;1.45;;;11.40;99.90;;;;;;5054385;28;20033;-50
2022/11/30 11:33:12;;;;;;;3.35;2.10;;;10.90;99.90;;;;;;5054093;28;20051;-55
2022/11/30 11:35:37;;;;;;;6.38;4.38;;;10.80;99.90;;;;;;5051799;28;20029;-49
2022/11/30 11:38:21;;;;;;;5.22;2.90;;;10.80;99.90;;;;;;5054432;28;20021;-54
2022/11/30 11:41:17;;;;;;;8.90;4.95;;;10.70;99.90;;;;;;5054388;28;20032;-52
2022/11/30 11:44:03;;;;;;;1.92;1.40;;;10.80;99.90;;;;;;5026407;28;20045;-56
2022/11/30 11:46:31;;;;;;;3.38;2.03;;;10.40;99.90;;;;;;5043416;28;20025;-49
2022/11/30 11:49:01;;;;;;;3.47;1.80;;;10.40;99.90;;;;;;5047380;28;20057;-53
2022/11/30 11:51:31;;;;;;;4.75;2.58;;;10.40;99.90;;;;;;4972838;28;20054;-52
2022/11/30 11:54:27;;;;;;;2.13;1.85;;;10.50;99.90;;;;;;4973272;28;20039;-51
2022/11/30 11:56:55;;;;;;;3.03;1.88;;;10.40;99.90;;;;;;4916309;29;20127;-59
2022/11/30 11:59:26;;;;;;;3.03;2.20;;;10.50;99.90;;;;;;4916504;29;20036;-54
2022/11/30 12:02:04;;;;;;;4.10;2.60;;;10.20;99.90;;;;;;4916057;29;20562;-61
2022/11/30 12:05:04;;;;;;;3.75;2.03;;;10.30;99.90;;;;;;4915784;29;20636;-50
2022/11/30 12:07:57;;;;;;;3.45;2.20;;;10.20;99.90;;;;;;4916091;29;20066;-51
2022/11/30 12:10:51;;;;;;;2.95;1.90;;;10.10;99.90;;;;;;4915395;29;20468;-51
2022/11/30 12:13:26;;;;;;;2.92;1.85;;;10.10;99.90;;;;;;4915369;29;20075;-51
2022/11/30 12:16:15;;;;;;;4.43;2.00;;;10.10;99.90;;;;;;4931226;29;20421;-50
2022/11/30 12:18:48;;;;;;;3.40;2.13;;;10.10;99.90;;;;;;4915341;29;20032;-50
2022/11/30 12:21:24;;;;;;;3.40;2.03;;;10.20;99.90;;;;;;4930992;29;20141;-51
2022/11/30 12:24:05;;;;;;;3.60;1.92;;;9.90;99.90;;;;;;4972785;28;20042;-50
2022/11/30 12:26:35;;;;;;;3.30;2.40;;;9.90;99.90;;;;;;4971837;28;20038;-51
2022/11/30 12:29:46;;;;;;;6.20;3.47;;;9.90;99.90;;;;;;4956531;28;20137;-51
2022/11/30 12:32:11;;;;;;;4.57;3.10;;;10.00;99.90;;;;;;4971728;28;20039;-50
2022/11/30 12:34:58;;;;;;;4.28;2.70;;;10.10;99.90;;;;;;5022940;28;20111;-51
2022/11/30 12:37:43;;;;;;;5.70;3.10;;;10.10;99.90;;;;;;5033888;28;20033;-51
2022/11/30 12:40:09;;;;;;;4.75;2.90;;;10.10;99.90;;;;;;5033672;28;20087;-51
2022/11/30 12:42:43;;;;;;;4.20;2.55;;;10.00;99.90;;;;;;5033207;28;20041;-50
2022/11/30 12:45:30;;;;;;;4.20;2.75;;;10.20;99.90;;;;;;5033363;28;20034;-50
2022/11/30 12:48:08;;;;;;;4.88;2.72;;;10.50;99.90;;;;;;5033159;28;20061;-50
2022/11/30 12:50:46;;;;;;;4.38;1.98;;;10.60;99.90;;;;;;5014835;28;20041;-51
2022/11/30 12:53:35;;;;;;;7.18;3.30;;;10.60;99.90;;;;;;5031213;28;20050;-50
2022/11/30 13:00:04;;;;;;;5.40;3.30;;;10.70;99.90;;;;;;5032495;28;20056;-51
2022/11/30 13:02:42;;;;;;;6.68;4.03;;;10.70;99.90;;;;;;5014770;28;20115;-51
2022/11/30 13:05:16;;;;;;;5.95;3.55;;;10.70;99.90;;;;;;5014823;28;20136;-51
2022/11/30 13:07:56;;;;;;;6.32;3.83;;;10.80;99.90;;;;;;5029908;28;20041;-50
2022/11/30 13:10:50;;;;;;;5.75;4.20;;;10.90;99.90;;;;;;5032930;28;20059;-49